Terminal Aerodrome Forecast
Issued by NWS San Angelo, TX

Home | Current Version | Previous Version | Text Only | Print | Product List | Glossary On
Versions: 1 2 3 4 5 6 7 8 9 10 11 12 13 14 15 16 17 18 19 20 21 22 23 24 25 26 27
000
FTUS44 KSJT 231700
TAFABI
TAF
KABI 231729Z 2318/2418 16014G20KT P6SM VCSH SCT025 BKN040
     FM231900 17015G25KT 5SM -SHRA VCTS BKN030CB
     FM232300 16016G23KT 5SM -TSRA BR BKN025CB
     FM240300 16013KT 5SM BR VCTS OVC025CB
     FM240600 15012KT P6SM VCSH OVC020=

USA.gov is the U.S. government's official web portal to all federal, state and local government web resources and services.